createdAt,value
2023-02-19T00:01:43.793Z,101952.75
2023-02-19T00:04:18.968Z,101964.69
2023-02-19T00:06:46.953Z,101950.56
2023-02-19T00:09:16.008Z,101960.16
2023-02-19T00:11:43.005Z,101963.06
2023-02-19T00:14:14.708Z,101961.47
2023-02-19T00:16:41.502Z,101960.66
2023-02-19T00:19:17.975Z,101960.09
2023-02-19T00:21:44.809Z,101958.25
2023-02-19T00:24:12.806Z,101963.56
2023-02-19T00:26:40.874Z,101968.06
2023-02-19T00:29:12.283Z,101978.69
2023-02-19T00:31:40.445Z,101977.09
2023-02-19T00:34:07.907Z,101980.56
2023-02-19T00:36:37.023Z,101973.66
2023-02-19T00:39:04.990Z,101969.94
2023-02-19T00:41:32.260Z,101970.16
2023-02-19T00:44:04.528Z,101979.22
2023-02-19T00:46:38.219Z,101978.41
2023-02-19T00:49:07.028Z,101975.75
2023-02-19T00:51:38.416Z,101977.84
2023-02-19T00:54:06.461Z,101979.69
2023-02-19T00:56:33.400Z,101974.38
2023-02-19T00:59:00.411Z,101982.34
2023-02-19T01:01:27.061Z,101977.03
2023-02-19T01:03:54.286Z,101978.09
2023-02-19T01:06:21.734Z,101989.53
2023-02-19T01:08:49.210Z,101991.38
2023-02-19T01:11:17.026Z,101994.03
2023-02-19T01:13:44.413Z,101985.28
2023-02-19T01:16:22.426Z,101997.47
2023-02-19T01:18:49.196Z,101995.06
2023-02-19T01:21:21.634Z,102000.94
2023-02-19T01:23:50.559Z,102005.44
2023-02-19T01:26:21.351Z,102011.00
2023-02-19T01:28:48.585Z,102006.53
2023-02-19T01:31:20.524Z,102006.75
2023-02-19T01:33:49.324Z,102010.47
2023-02-19T01:36:16.482Z,102016.81
2023-02-19T01:38:43.953Z,102009.94
2023-02-19T01:41:13.650Z,102012.81
2023-02-19T01:44:08.184Z,102013.84
2023-02-19T01:46:36.920Z,102011.47
2023-02-19T01:49:10.066Z,102015.69
2023-02-19T01:51:39.678Z,102018.56
2023-02-19T01:54:09.735Z,102018.03
2023-02-19T01:56:40.797Z,102017.47
2023-02-19T01:59:07.639Z,102019.34
2023-02-19T02:01:34.709Z,102024.63
2023-02-19T02:04:01.767Z,102016.69
2023-02-19T02:06:33.125Z,102016.91
2023-02-19T02:09:20.369Z,102016.38
2023-02-19T02:11:52.166Z,102009.44
2023-02-19T02:14:24.259Z,102024.31
2023-02-19T02:17:38.934Z,102013.16
2023-02-19T02:20:24.397Z,102026.66
2023-02-19T02:22:59.747Z,102021.34
2023-02-19T02:25:54.156Z,102018.94
2023-02-19T02:28:52.228Z,102026.13
2023-02-19T02:31:33.053Z,102027.97
2023-02-19T02:34:14.501Z,102032.47
2023-02-19T02:36:45.010Z,102032.72
2023-02-19T02:39:15.709Z,102030.31
2023-02-19T02:41:45.071Z,102031.09
2023-02-19T02:44:12.587Z,102035.06
2023-02-19T02:46:44.987Z,102034.81
2023-02-19T02:49:23.645Z,102041.19
2023-02-19T02:51:54.587Z,102050.19
2023-02-19T02:54:51.100Z,102046.75
2023-02-19T02:57:19.465Z,102041.44
2023-02-19T02:59:49.111Z,102039.03
2023-02-19T03:02:23.780Z,102039.81
2023-02-19T03:05:31.159Z,102045.13
2023-02-19T03:08:20.879Z,102047.22
2023-02-19T03:10:52.581Z,102049.88
2023-02-19T03:13:49.216Z,102056.00
2023-02-19T03:16:41.682Z,102062.91
2023-02-19T03:19:19.816Z,102058.66
2023-02-19T03:21:52.781Z,102059.47
2023-02-19T03:24:42.683Z,102063.13
2023-02-19T03:27:11.734Z,102065.78
2023-02-19T03:29:41.735Z,102062.09
2023-02-19T03:32:20.796Z,102061.31
2023-02-19T03:34:55.537Z,102065.00
2023-02-19T03:37:30.080Z,102068.97
2023-02-19T03:39:57.573Z,102072.41
2023-02-19T03:42:47.581Z,102070.00
2023-02-19T03:45:25.773Z,102073.47
2023-02-19T03:48:03.212Z,102076.13
2023-02-19T03:50:46.128Z,102070.81
2023-02-19T03:53:24.863Z,102080.59
2023-02-19T03:56:06.857Z,102082.47
2023-02-19T03:59:02.309Z,102086.41
2023-02-19T04:01:36.947Z,102102.34
2023-02-19T04:04:16.878Z,102099.91
2023-02-19T04:06:46.832Z,102095.69
2023-02-19T04:09:14.979Z,102099.13
2023-02-19T04:11:42.049Z,102111.59
2023-02-19T04:14:15.175Z,102114.50
2023-02-19T04:16:47.816Z,102110.22
2023-02-19T04:19:20.831Z,102119.22
2023-02-19T04:21:50.163Z,102111.75
2023-02-19T04:24:26.636Z,102128.72
2023-02-19T04:26:54.666Z,102130.81
2023-02-19T04:29:21.479Z,102131.28
2023-02-19T04:31:48.524Z,102129.69
2023-02-19T04:34:15.239Z,102129.94
2023-02-19T04:36:41.843Z,102133.66
2023-02-19T04:39:08.725Z,102139.75
2023-02-19T04:41:35.579Z,102147.72
2023-02-19T04:44:02.320Z,102148.50
2023-02-19T04:46:28.954Z,102157.53
2023-02-19T04:48:56.039Z,102160.72
2023-02-19T04:51:22.640Z,102159.13
2023-02-19T04:53:49.650Z,102168.69
2023-02-19T04:56:17.467Z,102168.69
2023-02-19T04:58:45.203Z,102178.47
2023-02-19T05:01:12.971Z,102171.34
2023-02-19T05:03:40.345Z,102180.91
2023-02-19T05:06:11.913Z,102185.41
2023-02-19T05:08:39.247Z,102177.44
2023-02-19T05:11:07.723Z,102185.41
2023-02-19T05:13:34.796Z,102188.84
2023-02-19T05:16:05.642Z,102190.72
2023-02-19T05:18:32.951Z,102189.66
2023-02-19T05:21:00.778Z,102194.97
2023-02-19T05:23:28.224Z,102196.81
2023-02-19T05:25:54.982Z,102203.19
2023-02-19T05:28:28.545Z,102206.06
2023-02-19T05:30:57.057Z,102209.75
2023-02-19T05:33:25.919Z,102216.13
2023-02-19T05:35:55.419Z,102216.13
2023-02-19T05:38:23.132Z,102213.47
2023-02-19T05:40:49.953Z,102205.75
2023-02-19T05:43:17.190Z,102208.66
2023-02-19T05:45:44.008Z,102218.69
2023-02-19T05:48:12.716Z,102216.28
2023-02-19T05:50:40.004Z,102217.31
2023-02-19T05:53:06.666Z,102217.31
2023-02-19T05:55:36.369Z,102213.06
2023-02-19T05:58:03.770Z,102222.06
2023-02-19T06:00:32.152Z,102223.69
2023-02-19T06:02:58.935Z,102223.69
2023-02-19T06:05:25.743Z,102228.97
2023-02-19T06:07:52.340Z,102232.66
2023-02-19T06:10:19.100Z,102230.84
2023-02-19T06:12:45.712Z,102233.22
2023-02-19T06:15:12.243Z,102238.78
2023-02-19T06:17:39.052Z,102246.97
2023-02-19T06:20:06.026Z,102248.00
2023-02-19T06:22:32.784Z,102257.81
2023-02-19T06:24:59.269Z,102263.34
2023-02-19T06:27:25.851Z,102263.34
2023-02-19T06:29:52.362Z,102270.75
2023-02-19T06:32:19.159Z,102280.56
2023-02-19T06:34:45.792Z,102282.63
2023-02-19T06:37:12.367Z,102285.53
2023-02-19T06:39:38.915Z,102280.47
2023-02-19T06:42:05.794Z,102284.94
2023-02-19T06:44:32.370Z,102279.91
2023-02-19T06:46:59.146Z,102288.91
2023-02-19T06:49:26.538Z,102293.16
2023-02-19T06:51:53.061Z,102294.19
2023-02-19T06:54:19.740Z,102299.72
2023-02-19T06:56:47.198Z,102291.78
2023-02-19T06:59:18.562Z,102305.28
2023-02-19T07:01:45.781Z,102306.31
2023-02-19T07:04:12.424Z,102313.47
2023-02-19T07:06:39.192Z,102312.69
2023-02-19T07:09:07.082Z,102326.97
2023-02-19T07:11:35.367Z,102322.72
2023-02-19T07:14:04.307Z,102336.53
2023-02-19T07:16:31.417Z,102327.75
2023-02-19T07:18:59.712Z,102338.38
2023-02-19T07:21:27.484Z,102347.16
2023-02-19T07:23:54.324Z,102355.91
2023-02-19T07:26:21.836Z,102359.59
2023-02-19T07:28:50.471Z,102360.41
2023-02-19T07:31:19.310Z,102365.72
2023-02-19T07:33:47.410Z,102363.84
2023-02-19T07:36:15.507Z,102360.97
2023-02-19T07:38:42.016Z,102373.03
2023-02-19T07:41:09.098Z,102381.91
2023-02-19T07:43:38.042Z,102381.78
2023-02-19T07:46:08.188Z,102373.69
2023-02-19T07:48:39.084Z,102372.03
2023-02-19T07:51:08.794Z,102384.91
2023-02-19T07:53:35.661Z,102394.09
2023-02-19T07:56:04.861Z,102392.34
2023-02-19T07:58:32.279Z,102395.88
2023-02-19T08:01:07.227Z,102390.66
2023-02-19T08:03:33.897Z,102396.06
2023-02-19T08:06:00.534Z,102399.13
2023-02-19T08:08:27.034Z,102402.94
2023-02-19T08:11:12.431Z,102408.81
2023-02-19T08:13:39.157Z,102404.94
2023-02-19T08:16:20.123Z,102408.72
2023-02-19T08:18:51.073Z,102408.25
2023-02-19T08:21:21.136Z,102421.81
2023-02-19T08:23:49.973Z,102432.22
2023-02-19T08:26:17.611Z,102431.25
2023-02-19T08:28:44.305Z,102434.97
2023-02-19T08:31:12.808Z,102450.66
2023-02-19T08:33:39.651Z,102450.66
2023-02-19T08:36:08.525Z,102452.28
2023-02-19T08:38:36.668Z,102452.50
2023-02-19T08:41:09.212Z,102451.94
2023-02-19T08:43:36.601Z,102452.34
2023-02-19T08:46:04.141Z,102464.19
2023-02-19T08:48:30.794Z,102463.72
2023-02-19T08:51:01.199Z,102472.31
2023-02-19T08:53:27.972Z,102460.88
2023-02-19T08:55:54.961Z,102459.84
2023-02-19T08:58:22.055Z,102455.66
2023-02-19T09:00:49.042Z,102468.44
2023-02-19T09:03:15.660Z,102463.47
2023-02-19T09:05:42.418Z,102471.34
2023-02-19T09:08:09.623Z,102463.47
2023-02-19T09:10:36.339Z,102463.06
2023-02-19T09:13:03.146Z,102464.44
2023-02-19T09:15:31.992Z,102467.41
2023-02-19T09:17:58.597Z,102486.03
2023-02-19T09:20:25.362Z,102497.78
2023-02-19T09:22:57.550Z,102482.97
2023-02-19T09:25:24.385Z,102491.22
2023-02-19T09:27:54.719Z,102492.84
2023-02-19T09:30:21.383Z,102490.53
2023-02-19T09:32:47.940Z,102508.44
2023-02-19T09:35:14.525Z,102523.41
2023-02-19T09:37:41.041Z,102524.22
2023-02-19T09:40:08.127Z,102538.88
2023-02-19T09:42:34.860Z,102535.91
2023-02-19T09:45:01.915Z,102536.72
2023-02-19T09:47:31.499Z,102547.81
2023-02-19T09:50:05.490Z,102555.66
2023-02-19T09:52:52.901Z,102556.69
2023-02-19T09:55:28.235Z,102561.78
2023-02-19T09:57:56.758Z,102569.75
2023-02-19T10:00:31.317Z,102573.22
2023-02-19T10:03:05.428Z,102576.28
2023-02-19T10:05:34.140Z,102574.19
2023-02-19T10:08:04.495Z,102585.06
2023-02-19T10:10:34.225Z,102609.47
2023-02-19T10:13:17.987Z,102606.94
2023-02-19T10:15:48.711Z,102614.81
2023-02-19T10:18:21.781Z,102610.22
2023-02-19T10:20:50.793Z,102626.84
2023-02-19T10:23:18.182Z,102631.31
2023-02-19T10:25:57.257Z,102642.88
2023-02-19T10:28:28.168Z,102641.28
2023-02-19T10:30:57.766Z,102642.69
2023-02-19T10:33:25.540Z,102650.66
2023-02-19T10:36:00.357Z,102654.38
2023-02-19T10:38:34.682Z,102656.44
2023-02-19T10:41:07.267Z,102649.06
2023-02-19T10:43:40.805Z,102646.47
2023-02-19T10:46:16.854Z,102655.94
2023-02-19T10:48:51.884Z,102656.66
2023-02-19T10:51:21.928Z,102657.56
2023-02-19T10:53:50.826Z,102658.94
2023-02-19T10:56:25.591Z,102650.97
2023-02-19T10:58:52.873Z,102656.16
2023-02-19T11:01:29.271Z,102655.91
2023-02-19T11:04:16.287Z,102646.75
2023-02-19T11:06:43.643Z,102634.59
2023-02-19T11:09:36.778Z,102638.38
2023-02-19T11:12:06.136Z,102643.47
2023-02-19T11:14:34.670Z,102649.34
2023-02-19T11:17:06.623Z,102652.16
2023-02-19T11:19:38.645Z,102656.78
2023-02-19T11:22:33.276Z,102654.63
2023-02-19T11:25:06.304Z,102660.16
2023-02-19T11:27:33.965Z,102669.34
2023-02-19T11:30:35.250Z,102669.66
2023-02-19T11:33:27.276Z,102662.41
2023-02-19T11:36:15.737Z,102664.69
2023-02-19T11:38:42.920Z,102672.09
2023-02-19T11:41:28.729Z,102677.88
2023-02-19T11:44:30.294Z,102673.16
2023-02-19T11:47:10.867Z,102679.81
2023-02-19T11:50:08.868Z,102674.16
2023-02-19T11:53:08.990Z,102678.75
2023-02-19T11:55:50.116Z,102673.81
2023-02-19T11:58:46.993Z,102672.44
2023-02-19T12:01:30.346Z,102671.06
2023-02-19T12:04:08.026Z,102674.16
2023-02-19T12:07:06.148Z,102679.50
2023-02-19T12:09:58.630Z,102674.69
2023-02-19T12:12:49.216Z,102683.69
2023-02-19T12:15:41.196Z,102678.03
2023-02-19T12:18:27.921Z,102690.75
2023-02-19T12:21:20.521Z,102680.13
2023-02-19T12:24:25.455Z,102692.97
2023-02-19T12:27:20.550Z,102686.16
2023-02-19T12:30:24.630Z,102686.75
2023-02-19T12:33:22.351Z,102690.44
2023-02-19T12:36:27.606Z,102697.94
2023-02-19T12:39:28.853Z,102721.00
2023-02-19T12:42:02.581Z,102709.47
2023-02-19T12:44:44.052Z,102714.06
2023-02-19T12:47:21.618Z,102704.47
2023-02-19T12:50:05.714Z,102714.19
2023-02-19T12:52:40.535Z,102721.34
2023-02-19T12:55:29.539Z,102715.94
2023-02-19T12:57:59.237Z,102731.84
2023-02-19T13:00:34.583Z,102733.09
2023-02-19T13:03:21.093Z,102743.47
2023-02-19T13:06:12.042Z,102743.94
2023-02-19T13:09:06.383Z,102739.22
2023-02-19T13:11:42.903Z,102744.53
2023-02-19T13:14:30.930Z,102750.53
2023-02-19T13:17:09.427Z,102763.00
2023-02-19T13:19:37.780Z,102766.38
2023-02-19T13:22:59.121Z,102774.78
2023-02-19T13:25:44.213Z,102773.28
2023-02-19T13:28:28.077Z,102784.06
2023-02-19T13:31:10.812Z,102791.34
2023-02-19T13:33:48.517Z,102782.00
2023-02-19T13:36:23.316Z,102778.50
2023-02-19T13:38:50.548Z,102785.66
2023-02-19T13:41:20.815Z,102783.81
2023-02-19T13:43:56.046Z,102783.38
2023-02-19T13:46:23.040Z,102792.03
2023-02-19T13:49:31.592Z,102803.34
2023-02-19T13:52:00.486Z,102801.84
2023-02-19T13:54:40.111Z,102804.50
2023-02-19T13:57:28.554Z,102796.00
2023-02-19T13:59:58.246Z,102803.81
2023-02-19T14:02:32.182Z,102801.53
2023-02-19T14:05:07.908Z,102808.44
2023-02-19T14:07:38.063Z,102808.78
2023-02-19T14:10:12.276Z,102811.94
2023-02-19T14:12:38.809Z,102811.72
2023-02-19T14:15:44.118Z,102812.50
2023-02-19T14:18:47.551Z,102806.72
2023-02-19T14:21:26.034Z,102800.41
2023-02-19T14:23:55.979Z,102795.25
2023-02-19T14:26:23.933Z,102789.59
2023-02-19T14:28:53.060Z,102799.06
2023-02-19T14:31:36.472Z,102793.75
2023-02-19T14:34:18.721Z,102780.47
2023-02-19T14:36:49.104Z,102781.50
2023-02-19T14:39:19.809Z,102775.63
2023-02-19T14:41:51.473Z,102770.53
2023-02-19T14:44:25.808Z,102762.81
2023-02-19T14:47:05.241Z,102755.66
2023-02-19T14:49:45.891Z,102760.28
2023-02-19T14:52:25.056Z,102753.34
2023-02-19T14:54:56.928Z,102757.59
2023-02-19T14:57:28.701Z,102756.72
2023-02-19T15:00:00.736Z,102752.06
2023-02-19T15:02:29.515Z,102735.22
2023-02-19T15:04:56.756Z,102737.72
2023-02-19T15:07:30.235Z,102742.13
2023-02-19T15:10:04.898Z,102737.06
2023-02-19T15:12:51.912Z,102738.00
2023-02-19T15:15:29.797Z,102746.28
2023-02-19T15:17:57.769Z,102757.03
2023-02-19T15:20:26.716Z,102770.41
2023-02-19T15:22:54.645Z,102772.25
2023-02-19T15:25:24.709Z,102778.16
2023-02-19T15:27:51.484Z,102777.81
2023-02-19T15:30:24.536Z,102792.00
2023-02-19T15:32:55.792Z,102806.94
2023-02-19T15:35:24.090Z,102811.53
2023-02-19T15:37:52.152Z,102808.88
2023-02-19T15:40:20.589Z,102813.84
2023-02-19T15:42:47.967Z,102816.63
2023-02-19T15:45:16.936Z,102810.25
2023-02-19T15:47:49.235Z,102811.75
2023-02-19T15:50:19.481Z,102813.50
2023-02-19T15:52:55.235Z,102806.22
2023-02-19T15:55:34.182Z,102800.88
2023-02-19T15:58:19.418Z,102791.78
2023-02-19T16:00:52.118Z,102808.03
2023-02-19T16:03:23.047Z,102816.59
2023-02-19T16:06:16.328Z,102813.81
2023-02-19T16:08:45.921Z,102830.66
2023-02-19T16:11:24.533Z,102840.81
2023-02-19T16:13:52.019Z,102843.25
2023-02-19T16:16:24.448Z,102846.81
2023-02-19T16:18:53.216Z,102852.00
2023-02-19T16:21:27.052Z,102852.00
2023-02-19T16:24:03.061Z,102857.06
2023-02-19T16:26:32.119Z,102851.75
2023-02-19T16:28:58.710Z,102850.13
2023-02-19T16:31:25.613Z,102852.66
2023-02-19T16:33:52.522Z,102858.53
2023-02-19T16:36:19.216Z,102853.22
2023-02-19T16:39:14.324Z,102859.94
2023-02-19T16:41:46.669Z,102847.94
2023-02-19T16:44:31.375Z,102862.38
2023-02-19T16:47:04.847Z,102857.88
2023-02-19T16:49:32.022Z,102857.97
2023-02-19T16:52:04.503Z,102865.91
2023-02-19T16:54:31.588Z,102872.28
2023-02-19T16:56:58.161Z,102868.44
2023-02-19T16:59:24.967Z,102862.56
2023-02-19T17:01:51.634Z,102866.69
2023-02-19T17:04:18.438Z,102854.81
2023-02-19T17:06:45.656Z,102848.25
2023-02-19T17:09:12.230Z,102842.94
2023-02-19T17:11:38.954Z,102852.91
2023-02-19T17:14:05.544Z,102851.34
2023-02-19T17:16:40.254Z,102858.94
2023-02-19T17:19:14.123Z,102854.69
2023-02-19T17:21:40.937Z,102864.03
2023-02-19T17:24:08.009Z,102865.91
2023-02-19T17:26:34.703Z,102865.06
2023-02-19T17:29:04.320Z,102873.59
2023-02-19T17:31:31.126Z,102873.59
2023-02-19T17:33:59.242Z,102877.53
2023-02-19T17:36:30.495Z,102878.78
2023-02-19T17:38:58.946Z,102881.66
2023-02-19T17:41:26.009Z,102879.69
2023-02-19T17:43:52.788Z,102890.88
2023-02-19T17:46:22.918Z,102896.19
2023-02-19T17:48:50.373Z,102899.06
2023-02-19T17:51:17.007Z,102910.72
2023-02-19T17:53:44.061Z,102914.38
2023-02-19T17:56:16.863Z,102913.22
2023-02-19T17:58:43.589Z,102912.63
2023-02-19T18:01:10.725Z,102918.97
2023-02-19T18:03:37.546Z,102907.09
2023-02-19T18:06:05.110Z,102909.75
2023-02-19T18:08:31.806Z,102910.81
2023-02-19T18:10:58.538Z,102904.91
2023-02-19T18:13:25.278Z,102889.34
2023-02-19T18:15:53.570Z,102875.66
2023-02-19T18:18:21.100Z,102886.84
2023-02-19T18:20:48.004Z,102879.91
2023-02-19T18:23:14.979Z,102883.13
2023-02-19T18:25:41.782Z,102881.06
2023-02-19T18:28:08.559Z,102877.63
2023-02-19T18:30:35.304Z,102873.56
2023-02-19T18:33:02.169Z,102877.50
2023-02-19T18:35:28.968Z,102880.38
2023-02-19T18:37:55.996Z,102875.84
2023-02-19T18:40:25.943Z,102879.78
2023-02-19T18:42:52.864Z,102881.47
2023-02-19T18:45:19.672Z,102875.78
2023-02-19T18:47:50.079Z,102879.72
2023-02-19T18:50:18.950Z,102876.69
2023-02-19T18:52:45.818Z,102879.34
2023-02-19T18:55:12.508Z,102883.72
2023-02-19T18:57:39.088Z,102884.97
2023-02-19T19:00:07.395Z,102883.19
2023-02-19T19:02:48.357Z,102888.69
2023-02-19T19:05:23.309Z,102875.06
2023-02-19T19:07:54.478Z,102878.59
2023-02-19T19:10:22.070Z,102883.75
2023-02-19T19:12:49.051Z,102888.88
2023-02-19T19:15:18.449Z,102892.00
2023-02-19T19:17:45.552Z,102893.47
2023-02-19T19:20:12.692Z,102890.44
2023-02-19T19:22:39.535Z,102893.75
2023-02-19T19:25:06.581Z,102893.34
2023-02-19T19:27:33.187Z,102905.41
2023-02-19T19:29:59.757Z,102901.59
2023-02-19T19:32:26.278Z,102911.00
2023-02-19T19:34:52.920Z,102912.84
2023-02-19T19:37:19.731Z,102901.44
2023-02-19T19:39:46.216Z,102913.88
2023-02-19T19:42:12.796Z,102912.03
2023-02-19T19:44:39.418Z,102902.69
2023-02-19T19:47:05.965Z,102907.41
2023-02-19T19:49:33.577Z,102912.91
2023-02-19T19:52:01.215Z,102911.72
2023-02-19T19:54:28.524Z,102909.72
2023-02-19T19:56:55.151Z,102896.69
2023-02-19T19:59:22.497Z,102892.41
2023-02-19T20:01:51.728Z,102890.78
2023-02-19T20:04:20.217Z,102901.97
2023-02-19T20:06:47.324Z,102894.41
2023-02-19T20:09:14.557Z,102896.84
2023-02-19T20:11:48.968Z,102893.59
2023-02-19T20:14:17.172Z,102899.47
2023-02-19T20:16:44.955Z,102893.16
2023-02-19T20:19:12.204Z,102895.22
2023-02-19T20:21:39.042Z,102881.97
2023-02-19T20:24:05.856Z,102882.78
2023-02-19T20:26:32.732Z,102887.28
2023-02-19T20:28:59.364Z,102876.09
2023-02-19T20:31:26.498Z,102884.25
2023-02-19T20:33:53.295Z,102889.16
2023-02-19T20:36:20.774Z,102889.81
2023-02-19T20:38:49.827Z,102890.25
2023-02-19T20:41:16.437Z,102892.31
2023-02-19T20:43:43.161Z,102887.81
2023-02-19T20:46:10.158Z,102885.16
2023-02-19T20:48:37.016Z,102888.03
2023-02-19T20:51:04.236Z,102891.91
2023-02-19T20:53:31.998Z,102884.19
2023-02-19T20:55:59.110Z,102888.47
2023-02-19T20:58:26.096Z,102886.63
2023-02-19T21:00:55.839Z,102888.47
2023-02-19T21:03:22.710Z,102873.84
2023-02-19T21:05:49.274Z,102866.34
2023-02-19T21:08:17.381Z,102866.81
2023-02-19T21:10:45.498Z,102846.94
2023-02-19T21:13:13.027Z,102846.41
2023-02-19T21:15:39.548Z,102833.84
2023-02-19T21:18:06.182Z,102842.84
2023-02-19T21:20:32.898Z,102842.88
2023-02-19T21:22:59.668Z,102844.75
2023-02-19T21:25:26.726Z,102849.50
2023-02-19T21:27:53.553Z,102845.44
2023-02-19T21:30:20.095Z,102847.31
2023-02-19T21:32:46.677Z,102841.22
2023-02-19T21:35:13.439Z,102849.00
2023-02-19T21:37:42.429Z,102849.63
2023-02-19T21:40:09.734Z,102860.00
2023-02-19T21:42:36.463Z,102861.63
2023-02-19T21:45:03.813Z,102863.91
2023-02-19T21:47:30.370Z,102868.97
2023-02-19T21:49:56.942Z,102861.88
2023-02-19T21:52:23.468Z,102863.53
2023-02-19T21:54:50.098Z,102862.31
2023-02-19T21:57:16.584Z,102860.06
2023-02-19T21:59:43.277Z,102860.28
2023-02-19T22:02:10.376Z,102867.19
2023-02-19T22:04:37.129Z,102852.34
2023-02-19T22:07:03.583Z,102849.88
2023-02-19T22:09:31.708Z,102847.66
2023-02-19T22:11:58.444Z,102846.25
2023-02-19T22:14:25.142Z,102860.69
2023-02-19T22:16:51.930Z,102858.63
2023-02-19T22:19:18.551Z,102862.91
2023-02-19T22:21:45.293Z,102850.09
2023-02-19T22:24:17.740Z,102862.09
2023-02-19T22:26:44.942Z,102848.09
2023-02-19T22:29:13.395Z,102845.66
2023-02-19T22:31:40.177Z,102844.22
2023-02-19T22:34:07.368Z,102835.72
2023-02-19T22:36:36.999Z,102834.47
2023-02-19T22:39:05.813Z,102830.44
2023-02-19T22:41:32.652Z,102831.47
2023-02-19T22:44:00.156Z,102832.25
2023-02-19T22:46:29.532Z,102826.38
2023-02-19T22:48:56.526Z,102828.41
2023-02-19T22:51:24.508Z,102827.19
2023-02-19T22:53:53.957Z,102825.16
2023-02-19T22:56:22.632Z,102819.47
2023-02-19T22:58:49.462Z,102813.56
2023-02-19T23:01:16.773Z,102815.41
2023-02-19T23:03:55.454Z,102814.59
2023-02-19T23:06:25.245Z,102804.06
2023-02-19T23:08:53.299Z,102800.59
2023-02-19T23:11:23.118Z,102798.78
2023-02-19T23:13:49.777Z,102801.22
2023-02-19T23:16:16.682Z,102793.28
2023-02-19T23:18:43.435Z,102796.94
2023-02-19T23:21:10.656Z,102800.78
2023-02-19T23:23:37.628Z,102793.69
2023-02-19T23:26:04.722Z,102791.25
2023-02-19T23:28:31.636Z,102794.72
2023-02-19T23:30:58.270Z,102801.41
2023-02-19T23:33:24.898Z,102811.16
2023-02-19T23:35:51.443Z,102809.13
2023-02-19T23:38:18.054Z,102808.91
2023-02-19T23:40:45.403Z,102815.81
2023-02-19T23:43:12.007Z,102815.00
2023-02-19T23:45:38.701Z,102803.63
2023-02-19T23:48:05.508Z,102805.06
2023-02-19T23:50:32.147Z,102794.50
2023-02-19T23:52:59.438Z,102784.75
2023-02-19T23:55:26.522Z,102783.72
2023-02-19T23:57:53.564Z,102766.88
